createdAt,value
2018-07-10T00:00:16.984Z,982.16
2018-07-10T00:01:16.952Z,982.11
2018-07-10T00:02:16.837Z,982.12
2018-07-10T00:03:16.831Z,982.13
2018-07-10T00:04:16.817Z,982.11
2018-07-10T00:05:30.467Z,982.13
2018-07-10T00:06:16.963Z,982.10
2018-07-10T00:07:26.518Z,982.12
2018-07-10T00:09:29.637Z,982.08
2018-07-10T00:10:28.826Z,982.09
2018-07-10T00:11:38.269Z,982.06
2018-07-10T00:13:46.860Z,982.06
2018-07-10T00:14:57.352Z,982.02
2018-07-10T00:15:56.165Z,981.96
2018-07-10T00:18:23.227Z,981.98
2018-07-10T00:19:23.314Z,981.92
2018-07-10T00:21:38.624Z,981.95
2018-07-10T00:22:53.472Z,981.94
2018-07-10T00:23:38.645Z,981.93
2018-07-10T00:24:38.515Z,981.95
2018-07-10T00:25:38.844Z,981.91
2018-07-10T00:26:38.361Z,981.93
2018-07-10T00:27:38.385Z,981.91
2018-07-10T00:28:38.371Z,981.93
2018-07-10T00:29:38.317Z,981.93
2018-07-10T00:30:38.347Z,981.90
2018-07-10T00:31:38.335Z,981.98
2018-07-10T00:32:38.303Z,981.96
2018-07-10T00:33:38.315Z,981.96
2018-07-10T00:34:38.345Z,981.96
2018-07-10T00:35:38.332Z,981.92
2018-07-10T00:36:38.287Z,981.86
2018-07-10T00:37:38.304Z,981.90
2018-07-10T00:38:38.262Z,981.91
2018-07-10T00:39:38.177Z,981.92
2018-07-10T00:40:38.334Z,981.98
2018-07-10T00:41:38.344Z,981.92
2018-07-10T00:42:38.198Z,981.96
2018-07-10T00:43:38.155Z,981.96
2018-07-10T00:44:38.166Z,981.89
2018-07-10T00:45:38.118Z,981.92
2018-07-10T00:46:38.152Z,981.89
2018-07-10T00:48:59.946Z,982.01
2018-07-10T00:51:12.174Z,982.03
2018-07-10T00:52:11.956Z,982.02
2018-07-10T00:54:57.514Z,981.91
2018-07-10T00:55:56.864Z,981.95
2018-07-10T00:56:57.109Z,981.91
2018-07-10T00:57:56.705Z,981.89
2018-07-10T00:58:56.725Z,981.92
2018-07-10T00:59:56.710Z,981.87
2018-07-10T01:00:56.705Z,981.90
2018-07-10T01:01:56.740Z,981.89
2018-07-10T01:02:56.706Z,981.86
2018-07-10T01:03:56.629Z,981.83
2018-07-10T01:04:56.636Z,981.80
2018-07-10T01:06:11.483Z,981.70
2018-07-10T01:06:57.019Z,981.67
2018-07-10T01:07:56.885Z,981.58
2018-07-10T01:08:56.980Z,981.58
2018-07-10T01:09:56.654Z,981.60
2018-07-10T01:10:56.549Z,981.56
2018-07-10T01:11:56.545Z,981.61
2018-07-10T01:12:56.524Z,981.61
2018-07-10T01:13:56.514Z,981.67
2018-07-10T01:14:56.546Z,981.64
2018-07-10T01:16:11.670Z,981.64
2018-07-10T01:16:56.789Z,981.67
2018-07-10T01:18:09.143Z,981.66
2018-07-10T01:18:56.557Z,981.73
2018-07-10T01:19:56.977Z,981.70
2018-07-10T01:20:56.531Z,981.72
2018-07-10T01:22:12.171Z,981.77
2018-07-10T01:22:56.760Z,981.74
2018-07-10T01:23:56.526Z,981.70
2018-07-10T01:26:14.499Z,981.70
2018-07-10T01:27:14.398Z,981.71
2018-07-10T01:28:14.291Z,981.67
2018-07-10T01:30:28.371Z,981.69
2018-07-10T01:31:28.169Z,981.67
2018-07-10T01:32:28.320Z,981.68
2018-07-10T01:33:42.424Z,981.61
2018-07-10T01:34:28.419Z,981.63
2018-07-10T01:35:28.150Z,981.65
2018-07-10T01:38:40.524Z,981.62
2018-07-10T01:39:40.589Z,981.59
2018-07-10T01:40:40.759Z,981.60
2018-07-10T01:41:40.405Z,981.60
2018-07-10T01:42:40.360Z,981.62
2018-07-10T01:43:53.926Z,981.61
2018-07-10T01:44:52.213Z,981.59
2018-07-10T01:45:40.525Z,981.56
2018-07-10T01:46:50.531Z,981.54
2018-07-10T01:47:41.306Z,981.53
2018-07-10T01:48:41.260Z,981.48
2018-07-10T01:49:41.123Z,981.53
2018-07-10T01:50:40.301Z,981.50
2018-07-10T01:51:40.280Z,981.53
2018-07-10T01:53:59.653Z,981.50
2018-07-10T01:54:59.413Z,981.55
2018-07-10T01:55:59.323Z,981.51
2018-07-10T01:56:59.546Z,981.47
2018-07-10T01:57:59.151Z,981.47
2018-07-10T02:00:33.036Z,981.39
2018-07-10T02:01:32.583Z,981.40
2018-07-10T02:02:33.193Z,981.37
2018-07-10T02:03:32.514Z,981.38
2018-07-10T02:04:32.468Z,981.37
2018-07-10T02:05:32.451Z,981.31
2018-07-10T02:06:32.438Z,981.27
2018-07-10T02:07:32.484Z,981.25
2018-07-10T02:08:32.490Z,981.23
2018-07-10T02:09:32.428Z,981.19
2018-07-10T02:10:32.496Z,981.13
2018-07-10T02:12:54.235Z,981.08
2018-07-10T02:13:54.122Z,981.05
2018-07-10T02:15:12.264Z,980.99
2018-07-10T02:15:54.189Z,980.96
2018-07-10T02:16:54.421Z,980.94
2018-07-10T02:17:53.900Z,980.98
2018-07-10T02:18:53.913Z,981.01
2018-07-10T02:19:53.926Z,980.99
2018-07-10T02:20:53.889Z,981.01
2018-07-10T02:21:54.006Z,981.01
2018-07-10T02:24:58.455Z,981.05
2018-07-10T02:25:57.981Z,981.04
2018-07-10T02:26:57.954Z,981.02
2018-07-10T02:27:57.957Z,980.97
2018-07-10T02:28:57.912Z,981.02
2018-07-10T02:29:57.940Z,980.99
2018-07-10T02:30:57.897Z,980.97
2018-07-10T02:31:57.891Z,980.93
2018-07-10T02:32:57.947Z,980.89
2018-07-10T02:33:57.872Z,980.87
2018-07-10T02:34:57.941Z,980.89
2018-07-10T02:35:57.854Z,980.84
2018-07-10T02:38:53.862Z,980.80
2018-07-10T02:39:53.661Z,980.73
2018-07-10T02:40:53.520Z,980.74
2018-07-10T02:41:53.335Z,980.78
2018-07-10T02:42:53.283Z,980.77
2018-07-10T02:43:53.327Z,980.75
2018-07-10T02:44:53.307Z,980.72
2018-07-10T02:45:53.271Z,980.74
2018-07-10T02:46:53.524Z,980.70
2018-07-10T02:47:53.222Z,980.70
2018-07-10T02:48:53.214Z,980.69
2018-07-10T02:49:53.247Z,980.71
2018-07-10T02:51:02.591Z,980.76
2018-07-10T02:51:53.322Z,980.80
2018-07-10T02:52:53.402Z,980.82
2018-07-10T02:53:53.529Z,980.77
2018-07-10T02:56:17.384Z,980.78
2018-07-10T02:57:17.152Z,980.70
2018-07-10T02:58:17.516Z,980.68
2018-07-10T02:59:17.048Z,980.70
2018-07-10T03:00:17.154Z,980.73
2018-07-10T03:01:17.043Z,980.68
2018-07-10T03:02:17.019Z,980.67
2018-07-10T03:04:37.679Z,980.64
2018-07-10T03:05:37.795Z,980.58
2018-07-10T03:06:37.469Z,980.62
2018-07-10T03:07:37.453Z,980.61
2018-07-10T03:08:37.468Z,980.61
2018-07-10T03:10:57.147Z,980.64
2018-07-10T03:13:36.860Z,980.49
2018-07-10T03:14:36.243Z,980.44
2018-07-10T03:15:36.662Z,980.47
2018-07-10T03:16:36.079Z,980.55
2018-07-10T03:17:36.020Z,980.58
2018-07-10T03:18:36.078Z,980.61
2018-07-10T03:19:54.934Z,980.60
2018-07-10T03:20:36.745Z,980.52
2018-07-10T03:21:35.983Z,980.56
2018-07-10T03:24:06.722Z,980.64
2018-07-10T03:25:17.209Z,980.63
2018-07-10T03:26:16.946Z,980.63
2018-07-10T03:27:06.558Z,980.62
2018-07-10T03:28:06.672Z,980.61
2018-07-10T03:29:06.727Z,980.67
2018-07-10T03:30:06.441Z,980.70
2018-07-10T03:31:06.430Z,980.71
2018-07-10T03:33:27.033Z,980.67
2018-07-10T03:34:26.489Z,980.60
2018-07-10T03:35:26.662Z,980.64
2018-07-10T03:36:26.411Z,980.58
2018-07-10T03:37:37.355Z,980.57
2018-07-10T03:39:44.564Z,980.52
2018-07-10T03:40:44.416Z,980.53
2018-07-10T03:43:14.073Z,980.59
2018-07-10T03:45:26.885Z,980.60
2018-07-10T03:47:44.983Z,980.56
2018-07-10T03:48:44.736Z,980.50
2018-07-10T03:49:56.100Z,980.52
2018-07-10T03:50:45.159Z,980.57
2018-07-10T03:51:45.155Z,980.57
2018-07-10T03:52:44.781Z,980.56
2018-07-10T03:53:44.638Z,980.56
2018-07-10T03:54:44.615Z,980.57
2018-07-10T03:55:44.614Z,980.58
2018-07-10T03:56:44.657Z,980.58
2018-07-10T03:57:44.649Z,980.58
2018-07-10T03:58:44.569Z,980.59
2018-07-10T03:59:44.697Z,980.61
2018-07-10T04:00:44.703Z,980.58
2018-07-10T04:01:44.629Z,980.56
2018-07-10T04:02:44.554Z,980.58
2018-07-10T04:03:44.517Z,980.59
2018-07-10T04:04:51.996Z,980.52
2018-07-10T04:05:44.473Z,980.53
2018-07-10T04:06:44.463Z,980.53
2018-07-10T04:07:44.430Z,980.56
2018-07-10T04:08:44.435Z,980.53
2018-07-10T04:09:44.404Z,980.55
2018-07-10T04:10:44.394Z,980.55
2018-07-10T04:11:44.400Z,980.49
2018-07-10T04:12:44.373Z,980.48
2018-07-10T04:13:44.362Z,980.54
2018-07-10T04:14:44.358Z,980.53
2018-07-10T04:15:44.336Z,980.52
2018-07-10T04:16:44.337Z,980.42
2018-07-10T04:17:44.367Z,980.47
2018-07-10T04:18:44.306Z,980.42
2018-07-10T04:19:44.293Z,980.37
2018-07-10T04:20:44.284Z,980.38
2018-07-10T04:21:44.310Z,980.39
2018-07-10T04:22:44.257Z,980.38
2018-07-10T04:23:44.246Z,980.39
2018-07-10T04:24:44.236Z,980.34
2018-07-10T04:25:44.224Z,980.34
2018-07-10T04:26:44.257Z,980.38
2018-07-10T04:27:44.223Z,980.40
2018-07-10T04:28:44.190Z,980.35
2018-07-10T04:29:44.214Z,980.34
2018-07-10T04:30:44.175Z,980.35
2018-07-10T04:31:44.156Z,980.40
2018-07-10T04:32:44.161Z,980.43
2018-07-10T04:33:44.142Z,980.51
2018-07-10T04:34:44.127Z,980.51
2018-07-10T04:35:44.114Z,980.58
2018-07-10T04:36:44.102Z,980.59
2018-07-10T04:37:44.109Z,980.66
2018-07-10T04:38:44.089Z,980.73
2018-07-10T04:39:44.069Z,980.81
2018-07-10T04:40:44.058Z,980.83
2018-07-10T04:41:44.053Z,980.87
2018-07-10T04:42:44.069Z,980.91
2018-07-10T04:43:44.038Z,980.90
2018-07-10T04:44:44.013Z,980.90
2018-07-10T04:45:44.002Z,980.89
2018-07-10T04:46:43.989Z,980.87
2018-07-10T04:47:44.022Z,980.88
2018-07-10T04:48:43.987Z,980.82
2018-07-10T04:49:43.956Z,980.83
2018-07-10T04:50:43.945Z,980.80
2018-07-10T04:51:43.942Z,980.75
2018-07-10T04:52:43.934Z,980.75
2018-07-10T04:53:43.922Z,980.74
2018-07-10T04:54:43.899Z,980.75
2018-07-10T04:55:43.893Z,980.71
2018-07-10T04:56:43.880Z,980.69
2018-07-10T04:57:43.865Z,980.74
2018-07-10T04:58:43.865Z,980.74
2018-07-10T04:59:43.843Z,980.77
2018-07-10T05:00:43.835Z,980.77
2018-07-10T05:01:43.822Z,980.82
2018-07-10T05:02:43.825Z,980.85
2018-07-10T05:03:43.813Z,980.82
2018-07-10T05:04:43.794Z,980.84
2018-07-10T05:05:43.821Z,980.85
2018-07-10T05:06:43.765Z,980.81
2018-07-10T05:07:43.756Z,980.85
2018-07-10T05:08:43.752Z,980.86
2018-07-10T05:09:43.731Z,980.89
2018-07-10T05:10:43.721Z,980.87
2018-07-10T05:11:43.708Z,980.89
2018-07-10T05:12:43.701Z,980.92
2018-07-10T05:13:43.702Z,980.96
2018-07-10T05:14:43.677Z,981.05
2018-07-10T05:15:43.664Z,981.06
2018-07-10T05:16:43.661Z,981.07
2018-07-10T05:17:43.710Z,981.16
2018-07-10T05:18:43.642Z,981.16
2018-07-10T05:19:43.618Z,981.12
2018-07-10T05:20:43.608Z,981.15
2018-07-10T05:21:43.597Z,981.16
2018-07-10T05:22:43.583Z,981.14
2018-07-10T05:23:43.587Z,981.18
2018-07-10T05:24:43.566Z,981.16
2018-07-10T05:25:43.556Z,981.11
2018-07-10T05:26:43.553Z,981.16
2018-07-10T05:27:43.534Z,981.14
2018-07-10T05:28:43.562Z,981.17
2018-07-10T05:29:43.532Z,981.17
2018-07-10T05:30:43.513Z,981.17
2018-07-10T05:31:43.520Z,981.17
2018-07-10T05:32:43.474Z,981.21
2018-07-10T05:33:43.476Z,981.18
2018-07-10T05:34:43.465Z,981.19
2018-07-10T05:35:43.440Z,981.17
2018-07-10T05:36:43.451Z,981.19
2018-07-10T05:37:43.418Z,981.19
2018-07-10T05:38:43.461Z,981.16
2018-07-10T05:39:43.491Z,981.09
2018-07-10T05:40:43.383Z,981.09
2018-07-10T05:41:43.373Z,981.08
2018-07-10T05:42:43.363Z,981.06
2018-07-10T05:43:43.389Z,981.07
2018-07-10T05:44:43.355Z,981.08
2018-07-10T05:45:43.328Z,981.04
2018-07-10T05:46:43.315Z,981.07
2018-07-10T05:47:43.305Z,981.07
2018-07-10T05:48:43.296Z,981.08
2018-07-10T05:49:43.300Z,981.00
2018-07-10T05:50:43.271Z,981.05
2018-07-10T05:51:43.322Z,981.16
2018-07-10T05:52:43.247Z,981.12
2018-07-10T05:53:43.243Z,981.15
2018-07-10T05:54:43.237Z,981.12
2018-07-10T05:55:43.236Z,981.11
2018-07-10T05:56:43.206Z,981.07
2018-07-10T05:57:43.193Z,981.10
2018-07-10T05:58:43.192Z,981.12
2018-07-10T05:59:43.184Z,981.11
2018-07-10T06:00:43.165Z,981.06
2018-07-10T06:01:43.145Z,981.02
2018-07-10T06:02:43.137Z,981.02
2018-07-10T06:03:43.125Z,980.96
2018-07-10T06:04:43.217Z,981.06
2018-07-10T06:05:43.101Z,980.99
2018-07-10T06:06:43.109Z,981.01
2018-07-10T06:07:43.080Z,981.01
2018-07-10T06:08:43.069Z,981.02
2018-07-10T06:09:43.068Z,981.03
2018-07-10T06:10:43.050Z,981.02
2018-07-10T06:11:43.034Z,981.00
2018-07-10T06:12:43.023Z,980.99
2018-07-10T06:13:43.015Z,980.98
2018-07-10T06:14:43.020Z,980.93
2018-07-10T06:15:42.987Z,980.98
2018-07-10T06:16:42.989Z,980.98
2018-07-10T06:17:42.977Z,980.97
2018-07-10T06:18:42.964Z,981.01
2018-07-10T06:19:42.958Z,981.09
2018-07-10T06:20:42.935Z,981.09
2018-07-10T06:21:42.923Z,981.15
2018-07-10T06:22:42.910Z,981.12
2018-07-10T06:23:42.948Z,981.09
2018-07-10T06:24:42.914Z,981.15
2018-07-10T06:25:42.907Z,981.14
2018-07-10T06:26:42.873Z,981.12
2018-07-10T06:27:42.876Z,981.12
2018-07-10T06:28:42.851Z,981.11
2018-07-10T06:29:42.845Z,981.13
2018-07-10T06:30:42.850Z,981.13
2018-07-10T06:31:42.810Z,981.08
2018-07-10T06:32:42.804Z,981.13
2018-07-10T06:33:42.791Z,981.09
2018-07-10T06:34:42.807Z,981.15
2018-07-10T06:35:42.770Z,981.15
2018-07-10T06:36:42.757Z,981.15
2018-07-10T06:37:42.746Z,981.17
2018-07-10T06:38:42.732Z,981.17
2018-07-10T06:39:42.745Z,981.18
2018-07-10T06:40:42.712Z,981.13
2018-07-10T06:41:42.701Z,981.12
2018-07-10T06:42:42.689Z,981.16
2018-07-10T06:43:42.680Z,981.16
2018-07-10T06:44:42.722Z,981.13
2018-07-10T06:45:42.654Z,981.13
2018-07-10T06:46:42.651Z,981.18
2018-07-10T06:47:42.631Z,981.15
2018-07-10T06:48:42.671Z,981.14
2018-07-10T06:49:42.624Z,981.17
2018-07-10T06:50:42.599Z,981.14
2018-07-10T06:51:42.586Z,981.20
2018-07-10T06:52:42.871Z,981.24
2018-07-10T06:53:42.582Z,981.16
2018-07-10T06:54:42.568Z,981.17
2018-07-10T06:55:42.539Z,981.20
2018-07-10T06:56:42.531Z,981.16
2018-07-10T06:57:42.521Z,981.17
2018-07-10T06:58:42.509Z,981.18
2018-07-10T06:59:42.499Z,981.15
2018-07-10T07:00:42.525Z,981.16
2018-07-10T07:01:42.482Z,981.20
2018-07-10T07:02:42.465Z,981.26
2018-07-10T07:03:42.511Z,981.26
2018-07-10T07:04:42.442Z,981.29
2018-07-10T07:05:42.447Z,981.30
2018-07-10T07:06:42.420Z,981.24
2018-07-10T07:07:42.426Z,981.28
2018-07-10T07:08:42.443Z,981.31
2018-07-10T07:09:42.387Z,981.31
2018-07-10T07:10:42.396Z,981.25
2018-07-10T07:11:42.366Z,981.27
2018-07-10T07:12:42.348Z,981.28
2018-07-10T07:13:42.337Z,981.27
2018-07-10T07:14:42.331Z,981.28
2018-07-10T07:15:42.328Z,981.36
2018-07-10T07:16:42.306Z,981.32
2018-07-10T07:17:42.299Z,981.31
2018-07-10T07:18:42.281Z,981.34
2018-07-10T07:19:42.270Z,981.35
2018-07-10T07:20:42.272Z,981.34
2018-07-10T07:21:42.288Z,981.34
2018-07-10T07:22:42.269Z,981.34
2018-07-10T07:23:42.283Z,981.32
2018-07-10T07:24:42.249Z,981.33
2018-07-10T07:25:42.214Z,981.32
2018-07-10T07:26:42.192Z,981.32
2018-07-10T07:27:42.198Z,981.34
2018-07-10T07:28:42.183Z,981.32
2018-07-10T07:29:42.161Z,981.35
2018-07-10T07:30:42.158Z,981.35
2018-07-10T07:31:42.133Z,981.39
2018-07-10T07:32:42.132Z,981.36
2018-07-10T07:33:42.121Z,981.33
2018-07-10T07:34:42.122Z,981.38
2018-07-10T07:35:42.118Z,981.31
2018-07-10T07:36:42.078Z,981.36
2018-07-10T07:37:42.073Z,981.37
2018-07-10T07:38:42.097Z,981.33
2018-07-10T07:39:42.046Z,981.30
2018-07-10T07:40:42.044Z,981.31
2018-07-10T07:41:42.036Z,981.30
2018-07-10T07:42:42.012Z,981.29
2018-07-10T07:43:42.069Z,981.27
2018-07-10T07:44:41.992Z,981.20
2018-07-10T07:45:41.996Z,981.22
2018-07-10T07:46:41.966Z,981.20
2018-07-10T07:47:41.980Z,981.20
2018-07-10T07:48:42.047Z,981.24
2018-07-10T07:49:41.971Z,981.21
2018-07-10T07:50:41.954Z,981.18
2018-07-10T07:51:41.921Z,981.17
2018-07-10T07:52:41.899Z,981.14
2018-07-10T07:53:41.889Z,981.09
2018-07-10T07:54:41.881Z,981.10
2018-07-10T07:55:41.867Z,981.08
2018-07-10T07:56:41.869Z,981.10
2018-07-10T07:57:41.853Z,981.07
2018-07-10T07:58:41.838Z,981.09
2018-07-10T07:59:41.855Z,981.10
2018-07-10T08:00:41.810Z,981.11
2018-07-10T08:01:41.805Z,981.13
2018-07-10T08:02:41.801Z,981.16
2018-07-10T08:03:41.810Z,981.11
2018-07-10T08:04:41.765Z,981.15
2018-07-10T08:05:41.758Z,981.09
2018-07-10T08:06:41.796Z,981.10
2018-07-10T08:07:41.765Z,981.03
2018-07-10T08:08:41.718Z,981.02
2018-07-10T08:09:41.738Z,981.03
2018-07-10T08:10:41.706Z,981.01
2018-07-10T08:11:41.755Z,980.97
2018-07-10T08:12:41.675Z,980.98
2018-07-10T08:13:41.671Z,980.98
2018-07-10T08:14:41.657Z,980.98
2018-07-10T08:15:41.651Z,980.98
2018-07-10T08:16:41.642Z,980.98
2018-07-10T08:17:41.622Z,981.00
2018-07-10T08:18:41.606Z,980.99
2018-07-10T08:19:41.599Z,981.00
2018-07-10T08:20:41.587Z,981.01
2018-07-10T08:21:41.588Z,980.91
2018-07-10T08:22:41.565Z,980.92
2018-07-10T08:23:41.549Z,980.86
2018-07-10T08:24:41.541Z,980.86
2018-07-10T08:25:41.535Z,980.87
2018-07-10T08:26:41.559Z,980.90
2018-07-10T08:27:41.507Z,980.92
2018-07-10T08:28:41.494Z,980.95
2018-07-10T08:29:41.486Z,980.96
2018-07-10T08:30:41.481Z,980.93
2018-07-10T08:31:41.473Z,980.87
2018-07-10T08:32:41.454Z,980.88
2018-07-10T08:33:41.546Z,980.86
2018-07-10T08:34:41.437Z,980.88
2018-07-10T08:35:41.419Z,980.84
2018-07-10T08:36:41.419Z,980.84
2018-07-10T08:37:41.431Z,980.80
2018-07-10T08:38:41.384Z,980.83
2018-07-10T08:39:41.376Z,980.81
2018-07-10T08:40:41.360Z,980.82
2018-07-10T08:41:41.363Z,980.90
2018-07-10T08:42:41.341Z,980.90
2018-07-10T08:43:41.328Z,980.89
2018-07-10T08:44:41.338Z,980.80
2018-07-10T08:45:41.305Z,980.87
2018-07-10T08:46:41.304Z,980.82
2018-07-10T08:47:41.285Z,980.82
2018-07-10T08:48:41.277Z,980.79
2018-07-10T08:49:41.260Z,980.84
2018-07-10T08:50:41.297Z,980.82
2018-07-10T08:51:41.262Z,980.78
2018-07-10T08:52:41.232Z,980.80
2018-07-10T08:53:41.219Z,980.74
2018-07-10T08:54:41.215Z,980.75
2018-07-10T08:55:41.204Z,980.78
2018-07-10T08:56:41.199Z,980.81
2018-07-10T08:57:41.182Z,980.76
2018-07-10T08:58:41.183Z,980.73
2018-07-10T08:59:41.158Z,980.73
2018-07-10T09:00:41.139Z,980.75
2018-07-10T09:01:41.161Z,980.70
2018-07-10T09:02:41.136Z,980.70
2018-07-10T09:03:41.106Z,980.69
2018-07-10T09:04:41.092Z,980.70
2018-07-10T09:05:41.081Z,980.70
2018-07-10T09:06:41.081Z,980.63
2018-07-10T09:07:41.064Z,980.64
2018-07-10T09:08:41.139Z,980.66
2018-07-10T09:09:41.041Z,980.67
2018-07-10T09:10:41.026Z,980.61
2018-07-10T09:11:41.048Z,980.67
2018-07-10T09:12:41.037Z,980.66
2018-07-10T09:13:40.997Z,980.66
2018-07-10T09:14:40.986Z,980.66
2018-07-10T09:15:40.975Z,980.62
2018-07-10T09:16:40.958Z,980.64
2018-07-10T09:17:40.967Z,980.59
2018-07-10T09:18:40.941Z,980.59
2018-07-10T09:19:40.932Z,980.57
2018-07-10T09:20:40.914Z,980.55
2018-07-10T09:21:40.903Z,980.57
2018-07-10T09:22:40.923Z,980.51
2018-07-10T09:23:40.893Z,980.52
2018-07-10T09:24:40.888Z,980.47
2018-07-10T09:25:40.859Z,980.45
2018-07-10T09:26:40.849Z,980.45
2018-07-10T09:27:40.850Z,980.49
2018-07-10T09:28:40.827Z,980.54
2018-07-10T09:29:40.847Z,980.56
2018-07-10T09:30:40.807Z,980.52
2018-07-10T09:31:40.808Z,980.51
2018-07-10T09:32:40.826Z,980.51
2018-07-10T09:33:40.802Z,980.45
2018-07-10T09:34:40.758Z,980.48
2018-07-10T09:35:40.750Z,980.48
2018-07-10T09:36:40.735Z,980.48
2018-07-10T09:37:40.734Z,980.39
2018-07-10T09:38:40.714Z,980.46
2018-07-10T09:39:40.703Z,980.43
2018-07-10T09:40:40.698Z,980.44
2018-07-10T09:41:40.682Z,980.43
2018-07-10T09:42:40.719Z,980.39
2018-07-10T09:43:40.658Z,980.38
2018-07-10T09:44:40.649Z,980.41
2018-07-10T09:45:40.639Z,980.42
2018-07-10T09:46:40.628Z,980.37
2018-07-10T09:47:40.626Z,980.39
2018-07-10T09:48:40.604Z,980.29
2018-07-10T09:49:40.590Z,980.28
2018-07-10T09:50:40.579Z,980.22
2018-07-10T09:51:40.567Z,980.20
2018-07-10T09:52:40.568Z,980.21
2018-07-10T09:53:40.553Z,980.18
2018-07-10T09:54:40.584Z,980.22
2018-07-10T09:55:40.526Z,980.19
2018-07-10T09:56:40.512Z,980.20
2018-07-10T09:57:40.515Z,980.25
2018-07-10T09:58:40.489Z,980.22
2018-07-10T09:59:40.478Z,980.17
2018-07-10T10:00:40.469Z,980.16
2018-07-10T10:01:40.455Z,980.18
2018-07-10T10:02:40.460Z,980.13
2018-07-10T10:03:40.442Z,980.15
2018-07-10T10:04:40.421Z,980.18
2018-07-10T10:05:40.412Z,980.12
2018-07-10T10:06:40.400Z,980.15
2018-07-10T10:07:40.403Z,980.17
2018-07-10T10:08:40.380Z,980.18
2018-07-10T10:09:40.366Z,980.18
2018-07-10T10:10:40.361Z,980.18
2018-07-10T10:11:40.351Z,980.09
2018-07-10T10:12:40.347Z,980.16
2018-07-10T10:13:40.321Z,980.18
2018-07-10T10:14:40.310Z,980.19
2018-07-10T10:15:40.317Z,980.19
2018-07-10T10:16:40.290Z,980.18
2018-07-10T10:17:40.295Z,980.20
2018-07-10T10:18:40.291Z,980.22
2018-07-10T10:19:40.253Z,980.21
2018-07-10T10:20:40.300Z,980.20
2018-07-10T10:21:40.232Z,980.21
2018-07-10T10:22:40.245Z,980.16
2018-07-10T10:23:40.207Z,980.22
2018-07-10T10:24:40.210Z,980.17
2018-07-10T10:25:40.204Z,980.20
2018-07-10T10:26:40.176Z,980.18
2018-07-10T10:27:40.187Z,980.20
2018-07-10T10:28:40.153Z,980.18
2018-07-10T10:29:40.145Z,980.19
2018-07-10T10:30:40.133Z,980.15
2018-07-10T10:31:40.123Z,980.13
2018-07-10T10:32:40.110Z,980.12
2018-07-10T10:33:40.108Z,980.10
2018-07-10T10:34:40.086Z,980.12
2018-07-10T10:35:40.133Z,980.15
2018-07-10T10:36:40.068Z,980.15
2018-07-10T10:37:40.054Z,980.10
2018-07-10T10:38:40.056Z,980.15
2018-07-10T10:39:40.029Z,980.13
2018-07-10T10:40:40.022Z,980.13
2018-07-10T10:41:40.009Z,980.12
2018-07-10T10:42:39.997Z,980.09
2018-07-10T10:43:39.996Z,980.08
2018-07-10T10:44:39.982Z,980.09
2018-07-10T10:45:39.963Z,980.08
2018-07-10T10:46:39.952Z,980.04
2018-07-10T10:47:39.939Z,980.02
2018-07-10T10:48:39.963Z,980.03
2018-07-10T10:49:39.941Z,980.03
2018-07-10T10:50:39.911Z,980.03
2018-07-10T10:51:39.904Z,980.06
2018-07-10T10:52:39.887Z,980.03
2018-07-10T10:53:39.936Z,980.02
2018-07-10T10:54:39.868Z,980.03
2018-07-10T10:55:39.851Z,980.03
2018-07-10T10:56:39.842Z,980.03
2018-07-10T10:57:39.831Z,980.02
2018-07-10T10:58:39.860Z,979.99
2018-07-10T10:59:39.808Z,980.01
2018-07-10T11:00:39.802Z,980.02
2018-07-10T11:01:39.788Z,980.03
2018-07-10T11:02:39.875Z,980.01
2018-07-10T11:03:39.777Z,980.01
2018-07-10T11:04:39.752Z,979.96
2018-07-10T11:05:39.747Z,979.94
2018-07-10T11:06:39.730Z,979.97
2018-07-10T11:07:39.717Z,979.94
2018-07-10T11:08:39.719Z,979.90
2018-07-10T11:09:39.710Z,979.97
2018-07-10T11:10:39.696Z,979.96
2018-07-10T11:11:39.672Z,979.89
2018-07-10T11:12:39.661Z,979.89
2018-07-10T11:13:39.661Z,979.88
2018-07-10T11:14:39.644Z,979.90
2018-07-10T11:15:39.638Z,979.90
2018-07-10T11:16:39.614Z,979.86
2018-07-10T11:17:39.605Z,979.87
2018-07-10T11:18:39.607Z,979.88
2018-07-10T11:19:39.584Z,979.83
2018-07-10T11:20:39.576Z,979.81
2018-07-10T11:21:39.565Z,979.80
2018-07-10T11:22:39.548Z,979.80
2018-07-10T11:23:39.563Z,979.80
2018-07-10T11:24:39.530Z,979.75
2018-07-10T11:25:39.518Z,979.77
2018-07-10T11:26:39.512Z,979.78
2018-07-10T11:27:39.513Z,979.78
2018-07-10T11:28:39.488Z,979.79
2018-07-10T11:29:39.489Z,979.83
2018-07-10T11:30:39.463Z,979.82
2018-07-10T11:31:39.448Z,979.76
2018-07-10T11:32:39.439Z,979.79
2018-07-10T11:33:39.430Z,979.78
2018-07-10T11:34:39.432Z,979.83
2018-07-10T11:35:39.407Z,979.81
2018-07-10T11:36:39.395Z,979.81
2018-07-10T11:37:39.385Z,979.77
2018-07-10T11:38:39.385Z,979.80
2018-07-10T11:39:39.392Z,979.83
2018-07-10T11:40:39.350Z,979.80
2018-07-10T11:41:39.337Z,979.84
2018-07-10T11:42:39.328Z,979.83
2018-07-10T11:43:39.317Z,979.83
2018-07-10T11:44:39.316Z,979.81
2018-07-10T11:45:39.357Z,979.82
2018-07-10T11:46:39.285Z,979.81
2018-07-10T11:47:39.273Z,979.82
2018-07-10T11:48:39.260Z,979.83
2018-07-10T11:49:39.266Z,979.84
2018-07-10T11:50:39.239Z,979.86
2018-07-10T11:51:39.249Z,979.85
2018-07-10T11:52:39.216Z,979.79
2018-07-10T11:53:39.208Z,979.79
2018-07-10T11:54:39.204Z,979.77
2018-07-10T11:55:39.184Z,979.77
2018-07-10T11:56:39.171Z,979.74
2018-07-10T11:57:39.161Z,979.78
2018-07-10T11:58:39.145Z,979.75
2018-07-10T11:59:39.152Z,979.77
2018-07-10T12:00:39.124Z,979.75
2018-07-10T12:01:39.114Z,979.83
2018-07-10T12:02:39.105Z,979.78
2018-07-10T12:03:39.095Z,979.81
2018-07-10T12:04:39.100Z,979.83
2018-07-10T12:05:39.081Z,979.84
2018-07-10T12:06:39.063Z,979.86
2018-07-10T12:07:39.049Z,979.82
2018-07-10T12:08:39.036Z,979.83
2018-07-10T12:09:39.039Z,979.81
2018-07-10T12:10:39.039Z,979.82
2018-07-10T12:11:39.003Z,979.85
2018-07-10T12:12:38.996Z,979.87
2018-07-10T12:13:38.981Z,979.85
2018-07-10T12:14:38.981Z,979.84
2018-07-10T12:15:38.958Z,979.88
2018-07-10T12:16:38.954Z,979.86
2018-07-10T12:17:38.986Z,979.83
2018-07-10T12:18:38.926Z,979.85
2018-07-10T12:19:38.930Z,979.85
2018-07-10T12:20:38.915Z,979.85
2018-07-10T12:21:38.891Z,979.86
2018-07-10T12:22:38.938Z,979.82
2018-07-10T12:23:38.905Z,979.82
2018-07-10T12:24:38.868Z,979.80
2018-07-10T12:25:38.847Z,979.82
2018-07-10T12:26:38.890Z,979.80
2018-07-10T12:27:38.824Z,979.85
2018-07-10T12:28:38.813Z,979.80
2018-07-10T12:29:38.813Z,979.82
2018-07-10T12:30:38.798Z,979.81
2018-07-10T12:31:38.780Z,979.77
2018-07-10T12:32:38.770Z,979.80
2018-07-10T12:33:38.758Z,979.78
2018-07-10T12:34:38.780Z,979.70
2018-07-10T12:35:38.737Z,979.70
2018-07-10T12:36:38.728Z,979.71
2018-07-10T12:37:38.712Z,979.70
2018-07-10T12:38:38.704Z,979.71
2018-07-10T12:39:38.709Z,979.69
2018-07-10T12:40:38.691Z,979.73
2018-07-10T12:41:38.703Z,979.71
2018-07-10T12:42:38.657Z,979.72
2018-07-10T12:43:38.645Z,979.67
2018-07-10T12:44:38.637Z,979.73
2018-07-10T12:45:38.672Z,979.68
2018-07-10T12:46:38.691Z,979.64
2018-07-10T12:47:38.604Z,979.59
2018-07-10T12:48:38.590Z,979.63
2018-07-10T12:49:38.583Z,979.61
2018-07-10T12:50:38.586Z,979.61
2018-07-10T12:51:38.560Z,979.57
2018-07-10T12:52:38.544Z,979.59
2018-07-10T12:53:38.534Z,979.60
2018-07-10T12:54:38.523Z,979.58
2018-07-10T12:55:38.520Z,979.59
2018-07-10T12:56:38.508Z,979.59
2018-07-10T12:57:38.491Z,979.56
2018-07-10T12:58:38.481Z,979.60
2018-07-10T12:59:38.476Z,979.64
2018-07-10T13:00:38.468Z,979.62
2018-07-10T13:01:38.458Z,979.59
2018-07-10T13:02:38.434Z,979.60
2018-07-10T13:03:38.423Z,979.62
2018-07-10T13:04:38.410Z,979.62